createdAt,value
2022-12-19T00:03:37.236Z,102250.91
2022-12-19T00:13:59.546Z,102232.34
2022-12-19T00:24:21.883Z,102237.50
2022-12-19T00:34:43.369Z,102231.50
2022-12-19T00:45:04.854Z,102199.28
2022-12-19T00:55:26.203Z,102168.72
2022-12-19T01:05:47.552Z,102167.91
2022-12-19T01:16:11.023Z,102135.63
2022-12-19T01:26:32.691Z,102123.72
2022-12-19T01:36:54.090Z,102114.47
2022-12-19T01:47:15.471Z,102106.09
2022-12-19T01:57:37.263Z,102090.09
2022-12-19T02:08:00.265Z,102077.38
2022-12-19T02:18:24.607Z,102053.63
2022-12-19T02:29:01.271Z,102038.47
2022-12-19T02:39:30.307Z,102052.19
2022-12-19T02:49:54.469Z,102031.09
2022-12-19T03:00:23.142Z,101993.09
2022-12-19T03:10:48.537Z,102002.66
2022-12-19T03:21:28.722Z,101974.91
2022-12-19T03:31:51.601Z,101962.28
2022-12-19T03:42:32.222Z,101936.94
2022-12-19T03:53:07.593Z,101937.97
2022-12-19T04:03:30.308Z,101927.19
2022-12-19T04:13:55.199Z,101929.78
2022-12-19T04:24:23.990Z,101910.31
2022-12-19T04:34:45.379Z,101898.53
2022-12-19T04:45:07.007Z,101872.09
2022-12-19T04:55:28.930Z,101853.50
2022-12-19T05:05:50.322Z,101827.19
2022-12-19T05:16:12.553Z,101825.53
2022-12-19T05:26:33.997Z,101802.59
2022-12-19T05:36:55.384Z,101800.13
2022-12-19T05:47:16.746Z,101790.81
2022-12-19T05:57:38.096Z,101771.31
2022-12-19T06:07:59.464Z,101758.66
2022-12-19T06:18:21.779Z,101759.66
2022-12-19T06:28:43.192Z,101745.22
2022-12-19T06:39:04.709Z,101748.75
2022-12-19T06:49:26.166Z,101734.31
2022-12-19T06:59:47.510Z,101741.22
2022-12-19T07:10:09.325Z,101737.06
2022-12-19T07:20:31.598Z,101737.13
2022-12-19T07:30:52.969Z,101724.50
2022-12-19T07:41:14.324Z,101719.44
2022-12-19T07:51:35.739Z,101724.63
2022-12-19T08:01:57.242Z,101716.25
2022-12-19T08:12:19.021Z,101730.03
2022-12-19T08:22:40.441Z,101732.69
2022-12-19T08:33:01.791Z,101713.97
2022-12-19T08:43:23.182Z,101708.13
2022-12-19T08:53:46.232Z,101712.47
2022-12-19T09:05:01.160Z,101704.91
2022-12-19T09:14:49.009Z,101690.50
2022-12-19T09:25:10.934Z,101697.44
2022-12-19T09:35:32.312Z,101691.56
2022-12-19T09:46:03.978Z,101690.84
2022-12-19T09:56:30.135Z,101676.38
2022-12-19T10:07:18.577Z,101679.06
2022-12-19T10:17:36.958Z,101675.69
2022-12-19T10:28:04.403Z,101670.56
2022-12-19T10:38:31.261Z,101668.06
2022-12-19T10:48:53.619Z,101661.25
2022-12-19T10:59:19.804Z,101658.69
2022-12-19T11:09:43.478Z,101649.31
2022-12-19T11:29:36.866Z,101640.75
2022-12-19T11:41:48.581Z,101636.41
2022-12-19T11:52:23.707Z,101622.66
2022-12-19T12:03:14.449Z,101617.47
2022-12-19T12:22:28.271Z,101609.72
2022-12-19T12:32:06.758Z,101598.53
2022-12-19T12:46:05.278Z,101582.09
2022-12-19T12:56:26.800Z,101582.06
2022-12-19T13:06:51.185Z,101579.44
2022-12-19T13:17:17.606Z,101585.41
2022-12-19T13:27:39.467Z,101585.41
2022-12-19T13:39:52.445Z,101581.94
2022-12-19T13:48:47.560Z,101576.66
2022-12-19T13:59:09.500Z,101567.22
2022-12-19T14:11:28.307Z,101570.47
2022-12-19T14:22:03.706Z,101555.06
2022-12-19T14:31:05.923Z,101548.19
2022-12-19T14:41:47.290Z,101549.84
2022-12-19T14:54:40.198Z,101531.75
2022-12-19T15:03:28.640Z,101536.00
2022-12-19T15:14:55.304Z,101526.59
2022-12-19T15:24:38.498Z,101515.41
2022-12-19T15:34:59.900Z,101514.59
2022-12-19T15:45:21.319Z,101499.09
2022-12-19T15:55:43.761Z,101500.75
2022-12-19T16:06:10.499Z,101495.47
2022-12-19T16:16:31.922Z,101498.06
2022-12-19T16:26:55.671Z,101478.28
2022-12-19T16:37:17.038Z,101503.28
2022-12-19T16:47:38.415Z,101510.13
2022-12-19T16:58:00.770Z,101518.75
2022-12-19T17:08:22.746Z,101505.00
2022-12-19T17:18:44.896Z,101497.28
2022-12-19T17:29:06.286Z,101476.66
2022-12-19T17:39:29.480Z,101471.47
2022-12-19T17:49:50.926Z,101484.28
2022-12-19T18:00:12.750Z,101504.06
2022-12-19T18:10:34.154Z,101496.31
2022-12-19T18:20:55.540Z,101494.53
2022-12-19T18:31:25.381Z,101488.66
2022-12-19T18:41:46.981Z,101506.66
2022-12-19T18:52:10.425Z,101492.88
2022-12-19T19:02:32.674Z,101509.19
2022-12-19T19:12:56.293Z,101500.66
2022-12-19T19:23:17.727Z,101511.78
2022-12-19T19:33:40.847Z,101499.75
2022-12-19T19:44:02.499Z,101503.91
2022-12-19T19:54:23.885Z,101508.22
2022-12-19T20:04:45.737Z,101509.97
2022-12-19T20:15:08.810Z,101505.59
2022-12-19T20:25:30.170Z,101506.59
2022-12-19T20:35:55.396Z,101530.53
2022-12-19T20:46:18.449Z,101512.47
2022-12-19T20:56:40.686Z,101532.28
2022-12-19T21:07:02.152Z,101519.22
2022-12-19T21:17:23.518Z,101529.50
2022-12-19T21:27:46.622Z,101523.41
2022-12-19T21:38:08.004Z,101534.59
2022-12-19T21:48:29.423Z,101534.59
2022-12-19T21:58:55.290Z,101544.91
2022-12-19T22:09:18.819Z,101530.19
2022-12-19T22:19:40.239Z,101508.75
2022-12-19T22:30:08.471Z,101507.81
2022-12-19T22:40:33.136Z,101500.91
2022-12-19T22:50:56.732Z,101494.00
2022-12-19T23:01:19.654Z,101486.81
2022-12-19T23:11:41.964Z,101495.41
2022-12-19T23:22:03.359Z,101489.38
2022-12-19T23:32:24.943Z,101479.97
2022-12-19T23:42:46.376Z,101474.00
2022-12-19T23:53:07.803Z,101469.66
